logo
Search for airport 
image banner adimage banner adimage banner ad
image banner ad

MMIO - Saltillo Aeropuerto Internacional Plan De Guadalupe

Located in Saltillo, Mexico

ICAO - MMIO, IATA - SLW

Data provided by Airmate  

General information

Coordinates: N25°32'59" W100°55'42"
Elevation is 4778 feet MSL.
 
View others Airports in Coahuila

Operational data

Special qualification required
Current time UTC:
Current local time:
Weather
TAF: TAF MMIO 180536Z 1806/1906 36010KT P6SM SCT200 FM180900 00000KT 6SM HZ SCT020 SCT200 TEMPO 1811/1815 6SM -RA FM181600 30010KT P6SM SCT200 FM181800 36010KT 6SM HZ SCT020 TEMPO 1820/1900 5SM -TSRA BKN020CB FM190100 27010KT P6SM SCT020 SCT200
View NOTAMs / SUP AIP / TFR affecting this airport [VIEW]
Communications frequencies: [VIEW]

Runways:

RWY identifierQFULength (ft)Width (ft)SurfaceLDA (ft)
17180°9455148ASP
35360°9455148ASP

Airport contact information

Address: Saltillo Mexico

Satellite view of MMIO